Virtual LH

Virtual LH. There's no better way to fly
Since 2013.



AIRPORT MAP

METAR AND TAF INFORMATION

METAR FOR GOOY
ADDS - METARS form results

(1000 UTC 21 January 2019)
Data provider http://aviationweather.gov/metar/data/
 
Forecast for: GOOY (DAKAR/YOFF , SN)
Text: TAF GOOY 210530Z 2106/2212 02013KT CAVOK
Forecast period: 0600 UTC 21 January 2019 to 1200 UTC 22 January 2019
Forecast type: FROM: standard forecast or significant change
Winds: from the NNE (20 degrees) at 15 MPH (13 knots; 6.7 m/s)
Visibility: 6 or more miles 10+ km)
Ceiling: unknown
Clouds: missing
Weather: NSW  (no significant weather)

RUNWAY INFORMATION

Runway 03 Runway length 4921 ft Runway width 98 ft
Runway elevation 63 ft Runway displaced threshold 0 ft Runway heading 23
Runway 21 Runway length 4921 ft Runway width 98 ft
Runway elevation 56 ft Runway displaced threshold 0 ft Runway heading 203
Runway 18 Runway length 11450 ft Runway width 148 ft
Runway elevation 64 ft Runway displaced threshold 525 ft Runway heading 173
Runway 36 Runway length 11450 ft Runway width 148 ft
Runway elevation 75 ft Runway displaced threshold 0 ft Runway heading 353

AIRPORT FREQUENCIES

Type APP Name DAKAR CON Frequency 120.5 MHZ
Type INFO Name DAKAR INFO Frequency 129.5 MHZ
Type INFO Name DAKAR INFO Frequency 345.2 MHZ
Type TWR Name DAKAR TWR Frequency 118.1 MHZ

AIRPORT NEAR NAVIGATION AIDS

Type NDB Name Dakar Frequency 323 KHZ
Type VOR-DME Name Dakar Frequency 113100 KHZ